Terminal Aerodrome Forecast
Issued by NWS

Home | Current Version | Previous Version | Text Only | Print | Product List | Glossary On
Versions: 1 2 3 4 5 6 7 8 9 10 11 12 13 14 15 16 17 18
000
FTUS41 KBGM 301100
TAFELM
TAF
KELM 301130Z 3012/0112 00000KT 1/2SM FG OVC002
      TEMPO 3012/3014 2SM BR SCT002
     FM301400 VRB03KT P6SM SCT050 BKN150
     FM301600 15005KT P6SM BKN050 PROB30 3021/0101 3SM SHRA BR
      OVC025
     FM010300 VRB03KT 3SM BR SCT002 BKN070
     FM010600 00000KT 1/2SM FG OVC002=

USA.gov is the U.S. government's official web portal to all federal, state and local government web resources and services.